sensor_id;sensor_type;location;lat;lon;timestamp;temperature;humidity
12827;DHT22;66927;48.812;9.118;2023-02-13T00:00:57;0.50;99.90
12827;DHT22;66927;48.812;9.118;2023-02-13T00:03:22;0.60;99.90
12827;DHT22;66927;48.812;9.118;2023-02-13T00:05:48;0.60;99.90
12827;DHT22;66927;48.812;9.118;2023-02-13T00:08:13;0.50;99.90
12827;DHT22;66927;48.812;9.118;2023-02-13T00:10:39;0.60;99.90
12827;DHT22;66927;48.812;9.118;2023-02-13T00:13:05;0.50;99.90
12827;DHT22;66927;48.812;9.118;2023-02-13T00:15:31;0.30;99.90
12827;DHT22;66927;48.812;9.118;2023-02-13T00:17:56;0.50;99.90
12827;DHT22;66927;48.812;9.118;2023-02-13T00:20:22;0.40;99.90
12827;DHT22;66927;48.812;9.118;2023-02-13T00:22:47;0.40;99.90
12827;DHT22;66927;48.812;9.118;2023-02-13T00:25:13;0.40;99.90
12827;DHT22;66927;48.812;9.118;2023-02-13T00:27:39;0.40;99.90
12827;DHT22;66927;48.812;9.118;2023-02-13T00:30:05;0.40;99.90
12827;DHT22;66927;48.812;9.118;2023-02-13T00:32:31;0.30;99.90
12827;DHT22;66927;48.812;9.118;2023-02-13T00:34:57;0.30;99.90
12827;DHT22;66927;48.812;9.118;2023-02-13T00:37:23;0.40;99.90
12827;DHT22;66927;48.812;9.118;2023-02-13T00:39:49;0.20;99.90
12827;DHT22;66927;48.812;9.118;2023-02-13T00:42:15;0.20;99.90
12827;DHT22;66927;48.812;9.118;2023-02-13T00:44:40;0.20;99.90
12827;DHT22;66927;48.812;9.118;2023-02-13T00:47:06;0.20;99.90
12827;DHT22;66927;48.812;9.118;2023-02-13T00:49:31;0.10;99.90
12827;DHT22;66927;48.812;9.118;2023-02-13T00:51:57;0.10;99.90
12827;DHT22;66927;48.812;9.118;2023-02-13T00:54:23;0.10;99.90
12827;DHT22;66927;48.812;9.118;2023-02-13T00:56:48;0.10;99.90
12827;DHT22;66927;48.812;9.118;2023-02-13T00:59:14;0.10;99.90
12827;DHT22;66927;48.812;9.118;2023-02-13T01:01:40;0.00;99.90
12827;DHT22;66927;48.812;9.118;2023-02-13T01:04:05;-0.20;99.90
12827;DHT22;66927;48.812;9.118;2023-02-13T01:06:31;0.00;99.90
12827;DHT22;66927;48.812;9.118;2023-02-13T01:08:57;0.30;99.90
12827;DHT22;66927;48.812;9.118;2023-02-13T01:11:22;0.00;99.90
12827;DHT22;66927;48.812;9.118;2023-02-13T01:13:49;0.00;99.90
12827;DHT22;66927;48.812;9.118;2023-02-13T01:16:15;0.00;99.90
12827;DHT22;66927;48.812;9.118;2023-02-13T01:18:42;-0.10;99.90
12827;DHT22;66927;48.812;9.118;2023-02-13T01:21:15;-0.10;99.90
12827;DHT22;66927;48.812;9.118;2023-02-13T01:23:41;-0.10;99.90
12827;DHT22;66927;48.812;9.118;2023-02-13T01:26:08;-0.10;99.90
12827;DHT22;66927;48.812;9.118;2023-02-13T01:28:35;-0.10;99.90
12827;DHT22;66927;48.812;9.118;2023-02-13T01:31:01;-0.10;99.90
12827;DHT22;66927;48.812;9.118;2023-02-13T01:33:28;-0.20;99.90
12827;DHT22;66927;48.812;9.118;2023-02-13T01:35:54;0.10;99.90
12827;DHT22;66927;48.812;9.118;2023-02-13T01:38:19;-0.20;99.90
12827;DHT22;66927;48.812;9.118;2023-02-13T01:40:47;-0.30;99.90
12827;DHT22;66927;48.812;9.118;2023-02-13T01:43:13;-0.30;99.90
12827;DHT22;66927;48.812;9.118;2023-02-13T01:45:39;-0.30;99.90
12827;DHT22;66927;48.812;9.118;2023-02-13T01:48:20;-0.30;99.90
12827;DHT22;66927;48.812;9.118;2023-02-13T01:50:52;-0.40;99.90
12827;DHT22;66927;48.812;9.118;2023-02-13T01:53:25;-0.40;99.90
12827;DHT22;66927;48.812;9.118;2023-02-13T01:56:02;-0.60;99.90
12827;DHT22;66927;48.812;9.118;2023-02-13T01:58:32;-0.50;99.90
12827;DHT22;66927;48.812;9.118;2023-02-13T02:00:59;-0.50;99.90
12827;DHT22;66927;48.812;9.118;2023-02-13T02:06:13;-0.50;99.90
12827;DHT22;66927;48.812;9.118;2023-02-13T02:08:40;-0.50;99.90
12827;DHT22;66927;48.812;9.118;2023-02-13T02:11:10;-0.50;99.90
12827;DHT22;66927;48.812;9.118;2023-02-13T02:13:41;-0.50;99.90
12827;DHT22;66927;48.812;9.118;2023-02-13T02:16:06;-0.50;99.90
12827;DHT22;66927;48.812;9.118;2023-02-13T02:18:32;-0.60;99.90
12827;DHT22;66927;48.812;9.118;2023-02-13T02:24:03;-0.70;99.90
12827;DHT22;66927;48.812;9.118;2023-02-13T02:27:03;-0.60;99.90
12827;DHT22;66927;48.812;9.118;2023-02-13T02:32:52;-0.70;99.90
12827;DHT22;66927;48.812;9.118;2023-02-13T02:35:33;-0.70;99.90
12827;DHT22;66927;48.812;9.118;2023-02-13T02:38:25;-0.70;99.90
12827;DHT22;66927;48.812;9.118;2023-02-13T02:44:05;-0.70;99.90
12827;DHT22;66927;48.812;9.118;2023-02-13T02:46:38;-0.70;99.90
12827;DHT22;66927;48.812;9.118;2023-02-13T02:49:30;-0.70;99.90
12827;DHT22;66927;48.812;9.118;2023-02-13T02:55:26;-0.70;99.90
12827;DHT22;66927;48.812;9.118;2023-02-13T02:58:08;-0.80;99.90
12827;DHT22;66927;48.812;9.118;2023-02-13T03:00:56;-0.80;99.90
12827;DHT22;66927;48.812;9.118;2023-02-13T03:03:41;-0.80;99.90
12827;DHT22;66927;48.812;9.118;2023-02-13T03:06:32;-0.80;99.90
12827;DHT22;66927;48.812;9.118;2023-02-13T03:09:03;-0.90;99.90
12827;DHT22;66927;48.812;9.118;2023-02-13T03:11:50;-0.90;99.90
12827;DHT22;66927;48.812;9.118;2023-02-13T03:14:47;-0.90;99.90
12827;DHT22;66927;48.812;9.118;2023-02-13T03:17:15;-0.90;99.90
12827;DHT22;66927;48.812;9.118;2023-02-13T03:28:02;-0.90;99.90
12827;DHT22;66927;48.812;9.118;2023-02-13T03:33:49;-0.90;99.90
12827;DHT22;66927;48.812;9.118;2023-02-13T03:42:00;-1.00;99.90
12827;DHT22;66927;48.812;9.118;2023-02-13T03:44:39;-1.00;99.90
12827;DHT22;66927;48.812;9.118;2023-02-13T03:47:07;-1.00;99.90
12827;DHT22;66927;48.812;9.118;2023-02-13T03:49:42;-1.00;99.90
12827;DHT22;66927;48.812;9.118;2023-02-13T03:52:46;-1.00;99.90
12827;DHT22;66927;48.812;9.118;2023-02-13T03:55:17;-1.00;99.90
12827;DHT22;66927;48.812;9.118;2023-02-13T03:58:06;-0.90;99.90
12827;DHT22;66927;48.812;9.118;2023-02-13T04:00:54;-1.00;99.90
12827;DHT22;66927;48.812;9.118;2023-02-13T04:03:23;-1.00;99.90
12827;DHT22;66927;48.812;9.118;2023-02-13T04:06:00;-1.00;99.90
12827;DHT22;66927;48.812;9.118;2023-02-13T04:08:26;-1.00;99.90
12827;DHT22;66927;48.812;9.118;2023-02-13T04:10:57;-1.00;99.90
12827;DHT22;66927;48.812;9.118;2023-02-13T04:13:34;-1.10;99.90
12827;DHT22;66927;48.812;9.118;2023-02-13T04:16:15;-1.00;99.90
12827;DHT22;66927;48.812;9.118;2023-02-13T04:18:42;-1.10;99.90
12827;DHT22;66927;48.812;9.118;2023-02-13T04:21:08;-1.10;99.90
12827;DHT22;66927;48.812;9.118;2023-02-13T04:23:34;-1.10;99.90
12827;DHT22;66927;48.812;9.118;2023-02-13T04:26:03;-1.10;99.90
12827;DHT22;66927;48.812;9.118;2023-02-13T04:28:30;-1.10;99.90
12827;DHT22;66927;48.812;9.118;2023-02-13T04:30:56;-1.10;99.90
12827;DHT22;66927;48.812;9.118;2023-02-13T04:33:22;-1.10;99.90
12827;DHT22;66927;48.812;9.118;2023-02-13T04:35:48;-1.10;99.90
12827;DHT22;66927;48.812;9.118;2023-02-13T04:38:14;-1.20;99.90
12827;DHT22;66927;48.812;9.118;2023-02-13T04:40:39;-1.10;99.90
12827;DHT22;66927;48.812;9.118;2023-02-13T04:43:05;-1.20;99.90
12827;DHT22;66927;48.812;9.118;2023-02-13T04:45:30;-1.20;99.90
12827;DHT22;66927;48.812;9.118;2023-02-13T04:47:57;-1.20;99.90
12827;DHT22;66927;48.812;9.118;2023-02-13T04:50:24;-1.20;99.90
12827;DHT22;66927;48.812;9.118;2023-02-13T04:52:52;-1.20;99.90
12827;DHT22;66927;48.812;9.118;2023-02-13T04:55:18;-1.30;99.90
12827;DHT22;66927;48.812;9.118;2023-02-13T04:57:44;-1.30;99.90
12827;DHT22;66927;48.812;9.118;2023-02-13T05:00:10;-1.30;99.90
12827;DHT22;66927;48.812;9.118;2023-02-13T05:02:36;-1.30;99.90
12827;DHT22;66927;48.812;9.118;2023-02-13T05:05:03;-1.30;99.90
12827;DHT22;66927;48.812;9.118;2023-02-13T05:07:28;-1.30;99.90
12827;DHT22;66927;48.812;9.118;2023-02-13T05:09:54;-1.30;99.90
12827;DHT22;66927;48.812;9.118;2023-02-13T05:12:20;-1.30;99.90
12827;DHT22;66927;48.812;9.118;2023-02-13T05:14:45;-1.30;99.90
12827;DHT22;66927;48.812;9.118;2023-02-13T05:17:11;-1.30;99.90
12827;DHT22;66927;48.812;9.118;2023-02-13T05:19:36;-1.30;99.90
12827;DHT22;66927;48.812;9.118;2023-02-13T05:22:02;-1.30;99.90
12827;DHT22;66927;48.812;9.118;2023-02-13T05:24:46;-1.30;99.90
12827;DHT22;66927;48.812;9.118;2023-02-13T05:27:11;-1.20;99.90
12827;DHT22;66927;48.812;9.118;2023-02-13T05:29:37;-1.20;99.90
12827;DHT22;66927;48.812;9.118;2023-02-13T05:32:03;-1.20;99.90
12827;DHT22;66927;48.812;9.118;2023-02-13T05:34:28;-1.20;99.90
12827;DHT22;66927;48.812;9.118;2023-02-13T05:36:54;-1.20;99.90
12827;DHT22;66927;48.812;9.118;2023-02-13T05:39:20;-1.30;99.90
12827;DHT22;66927;48.812;9.118;2023-02-13T05:41:46;-1.40;99.90
12827;DHT22;66927;48.812;9.118;2023-02-13T05:44:13;-1.40;99.90
12827;DHT22;66927;48.812;9.118;2023-02-13T05:46:41;-1.40;99.90
12827;DHT22;66927;48.812;9.118;2023-02-13T05:49:11;-1.40;99.90
12827;DHT22;66927;48.812;9.118;2023-02-13T05:51:41;-1.40;99.90
12827;DHT22;66927;48.812;9.118;2023-02-13T05:54:07;-1.40;99.90
12827;DHT22;66927;48.812;9.118;2023-02-13T05:56:33;-1.40;99.90
12827;DHT22;66927;48.812;9.118;2023-02-13T05:58:59;-1.30;99.90
12827;DHT22;66927;48.812;9.118;2023-02-13T06:01:25;-1.30;99.90
12827;DHT22;66927;48.812;9.118;2023-02-13T06:03:51;-1.30;99.90
12827;DHT22;66927;48.812;9.118;2023-02-13T06:06:16;-1.30;99.90
12827;DHT22;66927;48.812;9.118;2023-02-13T06:08:42;-1.30;99.90
12827;DHT22;66927;48.812;9.118;2023-02-13T06:11:10;-1.40;99.90
12827;DHT22;66927;48.812;9.118;2023-02-13T06:13:35;-1.40;99.90
12827;DHT22;66927;48.812;9.118;2023-02-13T06:16:08;-1.40;99.90
12827;DHT22;66927;48.812;9.118;2023-02-13T06:18:34;-1.50;99.90
12827;DHT22;66927;48.812;9.118;2023-02-13T06:21:00;-1.50;99.90
12827;DHT22;66927;48.812;9.118;2023-02-13T06:23:26;-1.50;99.90
12827;DHT22;66927;48.812;9.118;2023-02-13T06:25:52;-1.40;99.90
12827;DHT22;66927;48.812;9.118;2023-02-13T06:28:17;-1.50;99.90
12827;DHT22;66927;48.812;9.118;2023-02-13T06:30:43;-1.50;99.90
12827;DHT22;66927;48.812;9.118;2023-02-13T06:33:08;-1.50;99.90
12827;DHT22;66927;48.812;9.118;2023-02-13T06:35:34;-1.50;99.90
12827;DHT22;66927;48.812;9.118;2023-02-13T06:38:00;-1.40;99.90
12827;DHT22;66927;48.812;9.118;2023-02-13T06:40:25;-1.50;99.90
12827;DHT22;66927;48.812;9.118;2023-02-13T06:42:51;-1.40;99.90
12827;DHT22;66927;48.812;9.118;2023-02-13T06:45:17;-1.40;99.90
12827;DHT22;66927;48.812;9.118;2023-02-13T06:47:43;-1.40;99.90
12827;DHT22;66927;48.812;9.118;2023-02-13T06:50:10;-1.40;99.90
12827;DHT22;66927;48.812;9.118;2023-02-13T06:52:36;-1.40;99.90
12827;DHT22;66927;48.812;9.118;2023-02-13T06:55:02;-1.40;99.90
12827;DHT22;66927;48.812;9.118;2023-02-13T06:57:29;-1.30;99.90
12827;DHT22;66927;48.812;9.118;2023-02-13T07:00:00;-1.30;99.90
12827;DHT22;66927;48.812;9.118;2023-02-13T07:02:32;-1.30;99.90
12827;DHT22;66927;48.812;9.118;2023-02-13T07:04:58;-1.20;99.90
12827;DHT22;66927;48.812;9.118;2023-02-13T07:07:23;-1.00;99.90
12827;DHT22;66927;48.812;9.118;2023-02-13T07:09:49;-1.20;99.90
12827;DHT22;66927;48.812;9.118;2023-02-13T07:12:15;-1.20;99.90
12827;DHT22;66927;48.812;9.118;2023-02-13T07:14:40;-1.20;99.90
12827;DHT22;66927;48.812;9.118;2023-02-13T07:17:06;-1.20;99.90
12827;DHT22;66927;48.812;9.118;2023-02-13T07:19:32;-1.10;99.90
12827;DHT22;66927;48.812;9.118;2023-02-13T07:21:57;-1.10;99.90
12827;DHT22;66927;48.812;9.118;2023-02-13T07:24:23;-1.00;99.90
12827;DHT22;66927;48.812;9.118;2023-02-13T07:26:49;-1.00;99.90
12827;DHT22;66927;48.812;9.118;2023-02-13T07:29:15;-0.90;99.90
12827;DHT22;66927;48.812;9.118;2023-02-13T07:31:40;-0.80;99.90
12827;DHT22;66927;48.812;9.118;2023-02-13T07:34:06;-0.80;99.90
12827;DHT22;66927;48.812;9.118;2023-02-13T07:36:32;-0.70;99.90
12827;DHT22;66927;48.812;9.118;2023-02-13T07:38:58;-0.60;99.90
12827;DHT22;66927;48.812;9.118;2023-02-13T07:41:24;-0.50;99.90
12827;DHT22;66927;48.812;9.118;2023-02-13T07:43:53;-0.40;99.90
12827;DHT22;66927;48.812;9.118;2023-02-13T07:46:19;-0.40;99.90
12827;DHT22;66927;48.812;9.118;2023-02-13T07:48:44;-0.30;99.90
12827;DHT22;66927;48.812;9.118;2023-02-13T07:51:10;-0.20;99.90
12827;DHT22;66927;48.812;9.118;2023-02-13T07:53:35;-0.10;99.90
12827;DHT22;66927;48.812;9.118;2023-02-13T07:56:06;-0.10;99.90
12827;DHT22;66927;48.812;9.118;2023-02-13T07:58:34;0.00;99.90
12827;DHT22;66927;48.812;9.118;2023-02-13T08:01:11;0.10;99.90
12827;DHT22;66927;48.812;9.118;2023-02-13T08:03:37;0.30;99.90
12827;DHT22;66927;48.812;9.118;2023-02-13T08:06:04;0.40;99.90
12827;DHT22;66927;48.812;9.118;2023-02-13T08:08:32;0.50;99.90
12827;DHT22;66927;48.812;9.118;2023-02-13T08:11:07;0.50;99.90
12827;DHT22;66927;48.812;9.118;2023-02-13T08:14:13;0.60;99.90
12827;DHT22;66927;48.812;9.118;2023-02-13T08:16:39;0.80;99.90
12827;DHT22;66927;48.812;9.118;2023-02-13T08:19:06;0.90;99.90
12827;DHT22;66927;48.812;9.118;2023-02-13T08:21:31;1.00;99.90
12827;DHT22;66927;48.812;9.118;2023-02-13T08:23:58;1.00;99.90
12827;DHT22;66927;48.812;9.118;2023-02-13T08:26:25;1.20;99.90
12827;DHT22;66927;48.812;9.118;2023-02-13T08:28:51;1.30;99.90
12827;DHT22;66927;48.812;9.118;2023-02-13T08:31:17;1.40;99.90
12827;DHT22;66927;48.812;9.118;2023-02-13T08:33:42;1.60;99.90
12827;DHT22;66927;48.812;9.118;2023-02-13T08:36:08;1.70;99.90
12827;DHT22;66927;48.812;9.118;2023-02-13T08:38:34;1.90;99.90
12827;DHT22;66927;48.812;9.118;2023-02-13T08:40:59;2.10;99.90
12827;DHT22;66927;48.812;9.118;2023-02-13T08:43:25;2.20;99.90
12827;DHT22;66927;48.812;9.118;2023-02-13T08:45:50;2.50;99.90
12827;DHT22;66927;48.812;9.118;2023-02-13T08:48:16;2.70;99.90
12827;DHT22;66927;48.812;9.118;2023-02-13T08:50:42;2.90;99.90
12827;DHT22;66927;48.812;9.118;2023-02-13T08:53:07;3.10;99.90
12827;DHT22;66927;48.812;9.118;2023-02-13T08:55:33;3.40;99.90
12827;DHT22;66927;48.812;9.118;2023-02-13T08:58:02;3.60;99.90
12827;DHT22;66927;48.812;9.118;2023-02-13T09:00:29;3.80;99.90
12827;DHT22;66927;48.812;9.118;2023-02-13T09:02:54;3.90;99.90
12827;DHT22;66927;48.812;9.118;2023-02-13T09:05:24;4.10;99.90
12827;DHT22;66927;48.812;9.118;2023-02-13T09:07:49;4.30;99.90
12827;DHT22;66927;48.812;9.118;2023-02-13T09:10:15;4.60;99.90
12827;DHT22;66927;48.812;9.118;2023-02-13T09:12:41;4.70;99.90
12827;DHT22;66927;48.812;9.118;2023-02-13T09:15:07;4.90;99.90
12827;DHT22;66927;48.812;9.118;2023-02-13T09:17:33;5.00;99.90
12827;DHT22;66927;48.812;9.118;2023-02-13T09:19:58;5.00;99.90
12827;DHT22;66927;48.812;9.118;2023-02-13T09:22:24;5.10;99.90
12827;DHT22;66927;48.812;9.118;2023-02-13T09:24:50;5.20;99.90
12827;DHT22;66927;48.812;9.118;2023-02-13T09:27:15;5.30;99.90
12827;DHT22;66927;48.812;9.118;2023-02-13T09:29:41;5.40;99.90
12827;DHT22;66927;48.812;9.118;2023-02-13T09:32:06;5.40;99.90
12827;DHT22;66927;48.812;9.118;2023-02-13T09:34:32;5.50;99.90
12827;DHT22;66927;48.812;9.118;2023-02-13T09:36:58;5.70;99.90
12827;DHT22;66927;48.812;9.118;2023-02-13T09:39:23;5.80;99.90
12827;DHT22;66927;48.812;9.118;2023-02-13T09:41:51;5.70;99.90
12827;DHT22;66927;48.812;9.118;2023-02-13T09:44:36;5.80;99.90
12827;DHT22;66927;48.812;9.118;2023-02-13T09:47:04;5.90;99.90
12827;DHT22;66927;48.812;9.118;2023-02-13T09:49:34;5.90;99.90
12827;DHT22;66927;48.812;9.118;2023-02-13T09:52:01;5.90;99.90
12827;DHT22;66927;48.812;9.118;2023-02-13T09:54:27;6.10;99.90
12827;DHT22;66927;48.812;9.118;2023-02-13T09:59:45;6.30;99.90
12827;DHT22;66927;48.812;9.118;2023-02-13T10:10:49;7.30;99.90
12827;DHT22;66927;48.812;9.118;2023-02-13T10:16:17;7.70;99.90
12827;DHT22;66927;48.812;9.118;2023-02-13T10:18:56;8.10;99.90
12827;DHT22;66927;48.812;9.118;2023-02-13T10:21:34;8.30;99.90
12827;DHT22;66927;48.812;9.118;2023-02-13T10:24:13;8.40;99.90
12827;DHT22;66927;48.812;9.118;2023-02-13T10:26:40;8.60;99.90
12827;DHT22;66927;48.812;9.118;2023-02-13T10:32:03;9.10;99.90
12827;DHT22;66927;48.812;9.118;2023-02-13T10:34:35;9.40;99.90
12827;DHT22;66927;48.812;9.118;2023-02-13T10:37:02;9.50;99.90
12827;DHT22;66927;48.812;9.118;2023-02-13T10:39:32;10.00;99.90
12827;DHT22;66927;48.812;9.118;2023-02-13T10:56:47;18.00;93.10
12827;DHT22;66927;48.812;9.118;2023-02-13T11:00:02;20.20;86.80
12827;DHT22;66927;48.812;9.118;2023-02-13T11:02:31;22.50;75.40
12827;DHT22;66927;48.812;9.118;2023-02-13T11:05:17;24.40;68.30
12827;DHT22;66927;48.812;9.118;2023-02-13T11:07:45;25.40;62.20
12827;DHT22;66927;48.812;9.118;2023-02-13T11:10:19;26.40;58.50
12827;DHT22;66927;48.812;9.118;2023-02-13T11:12:46;27.50;56.40
12827;DHT22;66927;48.812;9.118;2023-02-13T11:15:30;28.10;53.50
12827;DHT22;66927;48.812;9.118;2023-02-13T11:18:12;28.90;51.90
12827;DHT22;66927;48.812;9.118;2023-02-13T11:20:41;29.70;50.50
12827;DHT22;66927;48.812;9.118;2023-02-13T11:29:28;31.70;46.10
12827;DHT22;66927;48.812;9.118;2023-02-13T11:31:34;31.60;45.50
12827;DHT22;66927;48.812;9.118;2023-02-13T11:36:54;31.10;45.30
12827;DHT22;66927;48.812;9.118;2023-02-13T11:39:31;31.20;44.00
12827;DHT22;66927;48.812;9.118;2023-02-13T11:41:58;31.40;43.80
12827;DHT22;66927;48.812;9.118;2023-02-13T11:44:31;31.50;44.00
12827;DHT22;66927;48.812;9.118;2023-02-13T11:46:59;31.60;42.50
12827;DHT22;66927;48.812;9.118;2023-02-13T11:49:26;31.90;43.40
12827;DHT22;66927;48.812;9.118;2023-02-13T11:51:54;32.00;41.90
12827;DHT22;66927;48.812;9.118;2023-02-13T11:54:39;31.90;41.60
12827;DHT22;66927;48.812;9.118;2023-02-13T11:59:45;31.20;42.10
12827;DHT22;66927;48.812;9.118;2023-02-13T12:02:18;30.90;42.50
12827;DHT22;66927;48.812;9.118;2023-02-13T12:04:44;30.50;41.80
12827;DHT22;66927;48.812;9.118;2023-02-13T12:07:37;29.70;42.50
12827;DHT22;66927;48.812;9.118;2023-02-13T12:10:25;28.40;43.00
12827;DHT22;66927;48.812;9.118;2023-02-13T12:13:00;26.60;45.40
12827;DHT22;66927;48.812;9.118;2023-02-13T12:15:32;25.20;46.60
12827;DHT22;66927;48.812;9.118;2023-02-13T12:18:21;23.90;48.70
12827;DHT22;66927;48.812;9.118;2023-02-13T12:26:31;22.70;51.40
12827;DHT22;66927;48.812;9.118;2023-02-13T12:32:16;23.90;50.80
12827;DHT22;66927;48.812;9.118;2023-02-13T12:37:56;27.10;47.70
12827;DHT22;66927;48.812;9.118;2023-02-13T12:46:39;30.50;42.40
12827;DHT22;66927;48.812;9.118;2023-02-13T12:51:59;29.40;43.60
12827;DHT22;66927;48.812;9.118;2023-02-13T12:57:38;30.00;42.40
12827;DHT22;66927;48.812;9.118;2023-02-13T13:03:22;30.20;42.70
12827;DHT22;66927;48.812;9.118;2023-02-13T13:14:39;28.20;44.70
12827;DHT22;66927;48.812;9.118;2023-02-13T13:27:29;25.50;48.00
12827;DHT22;66927;48.812;9.118;2023-02-13T13:32:42;29.50;44.10
12827;DHT22;66927;48.812;9.118;2023-02-13T13:35:14;30.60;42.40
12827;DHT22;66927;48.812;9.118;2023-02-13T13:43:20;30.20;42.00
12827;DHT22;66927;48.812;9.118;2023-02-13T13:46:02;30.90;42.00
12827;DHT22;66927;48.812;9.118;2023-02-13T13:48:49;31.40;41.60
12827;DHT22;66927;48.812;9.118;2023-02-13T13:51:19;31.10;41.90
12827;DHT22;66927;48.812;9.118;2023-02-13T14:07:37;26.00;46.30
12827;DHT22;66927;48.812;9.118;2023-02-13T14:10:04;26.90;44.80
12827;DHT22;66927;48.812;9.118;2023-02-13T14:14:57;24.40;47.30
12827;DHT22;66927;48.812;9.118;2023-02-13T14:20:36;22.10;50.90
12827;DHT22;66927;48.812;9.118;2023-02-13T14:26:18;20.70;52.70
12827;DHT22;66927;48.812;9.118;2023-02-13T14:31:36;19.10;55.70
12827;DHT22;66927;48.812;9.118;2023-02-13T14:36:47;18.50;57.40
12827;DHT22;66927;48.812;9.118;2023-02-13T14:39:40;18.60;57.90
12827;DHT22;66927;48.812;9.118;2023-02-13T14:42:27;18.30;58.00
12827;DHT22;66927;48.812;9.118;2023-02-13T14:44:56;17.60;59.20
12827;DHT22;66927;48.812;9.118;2023-02-13T14:47:30;16.90;59.80
12827;DHT22;66927;48.812;9.118;2023-02-13T14:49:59;16.50;61.90
12827;DHT22;66927;48.812;9.118;2023-02-13T14:52:37;16.00;63.30
12827;DHT22;66927;48.812;9.118;2023-02-13T14:55:13;15.70;63.80
12827;DHT22;66927;48.812;9.118;2023-02-13T14:57:43;15.40;65.30
12827;DHT22;66927;48.812;9.118;2023-02-13T15:00:27;15.30;66.00
12827;DHT22;66927;48.812;9.118;2023-02-13T15:03:03;14.80;66.40
12827;DHT22;66927;48.812;9.118;2023-02-13T15:05:32;14.40;68.60
12827;DHT22;66927;48.812;9.118;2023-02-13T15:08:06;13.90;69.60
12827;DHT22;66927;48.812;9.118;2023-02-13T15:10:41;13.50;70.60
12827;DHT22;66927;48.812;9.118;2023-02-13T15:13:30;13.20;71.90
12827;DHT22;66927;48.812;9.118;2023-02-13T15:16:09;12.70;74.00
12827;DHT22;66927;48.812;9.118;2023-02-13T15:18:46;12.40;74.60
12827;DHT22;66927;48.812;9.118;2023-02-13T15:21:16;12.30;75.20
12827;DHT22;66927;48.812;9.118;2023-02-13T15:23:43;12.20;76.20
12827;DHT22;66927;48.812;9.118;2023-02-13T15:26:21;11.80;77.90
12827;DHT22;66927;48.812;9.118;2023-02-13T15:29:23;11.50;78.90
12827;DHT22;66927;48.812;9.118;2023-02-13T15:31:48;11.30;80.40
12827;DHT22;66927;48.812;9.118;2023-02-13T15:34:34;11.00;82.00
12827;DHT22;66927;48.812;9.118;2023-02-13T15:37:00;10.90;83.20
12827;DHT22;66927;48.812;9.118;2023-02-13T15:39:29;10.80;84.60
12827;DHT22;66927;48.812;9.118;2023-02-13T15:41:58;10.50;86.40
12827;DHT22;66927;48.812;9.118;2023-02-13T15:44:30;10.40;87.40
12827;DHT22;66927;48.812;9.118;2023-02-13T15:47:03;10.20;89.50
12827;DHT22;66927;48.812;9.118;2023-02-13T15:49:35;10.00;90.10
12827;DHT22;66927;48.812;9.118;2023-02-13T15:52:17;9.90;90.50
12827;DHT22;66927;48.812;9.118;2023-02-13T15:54:49;9.70;90.90
12827;DHT22;66927;48.812;9.118;2023-02-13T15:57:16;9.70;91.30
12827;DHT22;66927;48.812;9.118;2023-02-13T15:59:44;9.60;91.90
12827;DHT22;66927;48.812;9.118;2023-02-13T16:02:41;9.60;91.90
12827;DHT22;66927;48.812;9.118;2023-02-13T16:05:11;9.50;92.00
12827;DHT22;66927;48.812;9.118;2023-02-13T16:10:25;9.30;92.90
12827;DHT22;66927;48.812;9.118;2023-02-13T16:12:52;9.20;92.90
12827;DHT22;66927;48.812;9.118;2023-02-13T16:15:20;9.10;93.10
12827;DHT22;66927;48.812;9.118;2023-02-13T16:17:47;9.10;93.30
12827;DHT22;66927;48.812;9.118;2023-02-13T16:22:51;8.90;93.90
12827;DHT22;66927;48.812;9.118;2023-02-13T16:28:24;8.80;94.30
12827;DHT22;66927;48.812;9.118;2023-02-13T16:31:00;8.70;95.10
12827;DHT22;66927;48.812;9.118;2023-02-13T16:33:28;8.50;95.50
12827;DHT22;66927;48.812;9.118;2023-02-13T16:38:45;8.30;96.00
12827;DHT22;66927;48.812;9.118;2023-02-13T16:49:04;7.90;97.70
12827;DHT22;66927;48.812;9.118;2023-02-13T16:51:55;7.80;98.20
12827;DHT22;66927;48.812;9.118;2023-02-13T16:54:31;7.60;98.90
12827;DHT22;66927;48.812;9.118;2023-02-13T16:57:05;7.50;99.50
12827;DHT22;66927;48.812;9.118;2023-02-13T17:07:28;7.10;99.90
12827;DHT22;66927;48.812;9.118;2023-02-13T17:09:56;7.00;99.90
12827;DHT22;66927;48.812;9.118;2023-02-13T17:12:23;6.70;99.90
12827;DHT22;66927;48.812;9.118;2023-02-13T17:14:49;6.70;99.90
12827;DHT22;66927;48.812;9.118;2023-02-13T17:17:18;6.70;99.90
12827;DHT22;66927;48.812;9.118;2023-02-13T17:19:44;6.60;99.90
12827;DHT22;66927;48.812;9.118;2023-02-13T17:22:21;6.50;99.90
12827;DHT22;66927;48.812;9.118;2023-02-13T17:24:48;6.40;99.90
12827;DHT22;66927;48.812;9.118;2023-02-13T17:27:14;6.40;99.90
12827;DHT22;66927;48.812;9.118;2023-02-13T17:29:39;6.20;99.90
12827;DHT22;66927;48.812;9.118;2023-02-13T17:32:07;6.10;99.90
12827;DHT22;66927;48.812;9.118;2023-02-13T17:34:33;6.10;99.90
12827;DHT22;66927;48.812;9.118;2023-02-13T17:36:58;6.10;99.90
12827;DHT22;66927;48.812;9.118;2023-02-13T17:39:24;6.20;99.90
12827;DHT22;66927;48.812;9.118;2023-02-13T17:41:50;6.00;99.90
12827;DHT22;66927;48.812;9.118;2023-02-13T17:44:17;5.90;99.90
12827;DHT22;66927;48.812;9.118;2023-02-13T17:46:42;5.80;99.90
12827;DHT22;66927;48.812;9.118;2023-02-13T17:49:08;5.60;99.90
12827;DHT22;66927;48.812;9.118;2023-02-13T17:51:35;5.50;99.90
12827;DHT22;66927;48.812;9.118;2023-02-13T17:54:02;5.60;99.90
12827;DHT22;66927;48.812;9.118;2023-02-13T17:56:28;5.50;99.90
12827;DHT22;66927;48.812;9.118;2023-02-13T17:58:55;5.40;99.90
12827;DHT22;66927;48.812;9.118;2023-02-13T18:01:21;5.30;99.90
12827;DHT22;66927;48.812;9.118;2023-02-13T18:03:48;5.20;99.90
12827;DHT22;66927;48.812;9.118;2023-02-13T18:06:14;5.20;99.90
12827;DHT22;66927;48.812;9.118;2023-02-13T18:08:40;5.10;99.90
12827;DHT22;66927;48.812;9.118;2023-02-13T18:11:10;5.10;99.90
12827;DHT22;66927;48.812;9.118;2023-02-13T18:13:36;5.00;99.90
12827;DHT22;66927;48.812;9.118;2023-02-13T18:16:07;4.90;99.90
12827;DHT22;66927;48.812;9.118;2023-02-13T18:18:33;4.80;99.90
12827;DHT22;66927;48.812;9.118;2023-02-13T18:20:59;4.80;99.90
12827;DHT22;66927;48.812;9.118;2023-02-13T18:23:24;4.80;99.90
12827;DHT22;66927;48.812;9.118;2023-02-13T18:25:50;4.80;99.90
12827;DHT22;66927;48.812;9.118;2023-02-13T18:28:15;5.00;99.90
12827;DHT22;66927;48.812;9.118;2023-02-13T18:30:41;4.70;99.90
12827;DHT22;66927;48.812;9.118;2023-02-13T18:33:08;4.70;99.90
12827;DHT22;66927;48.812;9.118;2023-02-13T18:35:33;4.60;99.90
12827;DHT22;66927;48.812;9.118;2023-02-13T18:38:01;4.70;99.90
12827;DHT22;66927;48.812;9.118;2023-02-13T18:40:27;4.50;99.90
12827;DHT22;66927;48.812;9.118;2023-02-13T18:42:52;4.50;99.90
12827;DHT22;66927;48.812;9.118;2023-02-13T18:45:18;4.40;99.90
12827;DHT22;66927;48.812;9.118;2023-02-13T18:47:44;4.40;99.90
12827;DHT22;66927;48.812;9.118;2023-02-13T18:50:11;4.20;99.90
12827;DHT22;66927;48.812;9.118;2023-02-13T18:52:37;4.20;99.90
12827;DHT22;66927;48.812;9.118;2023-02-13T18:55:03;4.10;99.90
12827;DHT22;66927;48.812;9.118;2023-02-13T18:57:31;4.10;99.90
12827;DHT22;66927;48.812;9.118;2023-02-13T18:59:56;4.00;99.90